createdAt,value
2022-08-17T00:00:49.452Z,92.57
2022-08-17T00:03:26.167Z,92.31
2022-08-17T00:06:01.174Z,93.84
2022-08-17T00:08:40.083Z,94.72
2022-08-17T00:11:09.706Z,94.79
2022-08-17T00:13:43.800Z,94.46
2022-08-17T00:16:23.239Z,94.51
2022-08-17T00:19:13.521Z,94.85
2022-08-17T00:22:29.628Z,93.58
2022-08-17T00:24:30.986Z,94.15
2022-08-17T00:26:57.654Z,94.69
2022-08-17T00:29:24.211Z,93.08
2022-08-17T00:31:54.025Z,92.05
2022-08-17T00:34:24.105Z,91.11
2022-08-17T00:36:50.831Z,93.82
2022-08-17T00:39:17.353Z,94.37
2022-08-17T00:41:44.137Z,94.61
2022-08-17T00:44:12.488Z,95.46
2022-08-17T00:46:43.850Z,96.59
2022-08-17T00:49:13.197Z,96.39
2022-08-17T00:52:10.808Z,97.60
2022-08-17T00:54:42.555Z,96.81
2022-08-17T00:57:13.848Z,96.41
2022-08-17T00:59:45.573Z,95.14
2022-08-17T01:02:15.820Z,91.22
2022-08-17T01:04:44.788Z,90.23
2022-08-17T01:07:12.251Z,90.10
2022-08-17T01:09:40.358Z,90.51
2022-08-17T01:12:12.333Z,91.79
2022-08-17T01:14:39.747Z,90.89
2022-08-17T01:17:07.769Z,91.73
2022-08-17T01:19:39.318Z,93.98
2022-08-17T01:22:09.108Z,95.66
2022-08-17T01:24:37.245Z,96.54
2022-08-17T01:27:10.388Z,95.43
2022-08-17T01:29:39.499Z,91.86
2022-08-17T01:32:08.177Z,89.99
2022-08-17T01:34:43.775Z,90.80
2022-08-17T01:37:18.491Z,93.66
2022-08-17T01:40:08.839Z,95.40
2022-08-17T01:42:43.119Z,97.09
2022-08-17T01:45:15.274Z,96.64
2022-08-17T01:47:41.960Z,98.06
2022-08-17T01:50:15.796Z,94.05
2022-08-17T01:52:47.337Z,91.60
2022-08-17T01:55:17.123Z,94.17
2022-08-17T01:57:58.039Z,95.88
2022-08-17T02:00:27.099Z,94.54
2022-08-17T02:03:18.611Z,93.16
2022-08-17T02:05:46.770Z,90.44
2022-08-17T02:08:19.724Z,92.97
2022-08-17T02:10:48.619Z,96.10
2022-08-17T02:13:16.365Z,93.22
2022-08-17T02:15:45.494Z,91.25
2022-08-17T02:18:15.237Z,91.34
2022-08-17T02:20:45.511Z,91.12
2022-08-17T02:23:13.220Z,92.18
2022-08-17T02:25:43.434Z,90.75
2022-08-17T02:28:11.306Z,93.18
2022-08-17T02:31:00.282Z,95.74
2022-08-17T02:33:25.230Z,93.08
2022-08-17T02:36:10.659Z,93.97
2022-08-17T02:38:37.944Z,90.59
2022-08-17T02:41:05.287Z,89.50
2022-08-17T02:43:32.586Z,92.51
2022-08-17T02:45:59.136Z,94.47
2022-08-17T02:48:30.579Z,94.32
2022-08-17T02:50:59.660Z,95.51
2022-08-17T02:53:35.662Z,96.41
2022-08-17T02:56:03.375Z,97.61
2022-08-17T02:58:34.981Z,98.44
2022-08-17T03:01:05.006Z,98.82
2022-08-17T03:03:34.680Z,96.74
2022-08-17T03:06:01.827Z,96.66
2022-08-17T03:08:28.630Z,94.15
2022-08-17T03:10:55.246Z,93.06
2022-08-17T03:13:22.328Z,92.33
2022-08-17T03:15:49.891Z,93.69
2022-08-17T03:18:24.722Z,95.72
2022-08-17T03:21:01.006Z,97.38
2022-08-17T03:23:29.551Z,96.29
2022-08-17T03:25:56.734Z,94.65
2022-08-17T03:28:23.974Z,96.43
2022-08-17T03:30:51.709Z,95.94
2022-08-17T03:33:18.935Z,95.65
2022-08-17T03:35:46.133Z,97.85
2022-08-17T03:38:15.248Z,95.35
2022-08-17T03:40:58.759Z,93.94
2022-08-17T03:43:29.252Z,93.93
2022-08-17T03:46:28.636Z,94.19
2022-08-17T03:49:19.247Z,95.53
2022-08-17T03:52:04.739Z,91.18
2022-08-17T03:54:49.891Z,92.28
2022-08-17T03:57:16.769Z,94.93
2022-08-17T03:59:44.939Z,93.97
2022-08-17T04:02:19.402Z,92.18
2022-08-17T04:04:46.687Z,93.35
2022-08-17T04:07:13.291Z,93.14
2022-08-17T04:09:39.869Z,91.76
2022-08-17T04:12:06.632Z,92.35
2022-08-17T04:14:51.743Z,89.75
2022-08-17T04:17:21.438Z,92.39
2022-08-17T04:19:48.034Z,90.80
2022-08-17T04:22:30.353Z,93.86
2022-08-17T04:25:02.451Z,94.01
2022-08-17T04:27:29.030Z,96.47
2022-08-17T04:29:56.204Z,96.20
2022-08-17T04:32:59.190Z,92.54
2022-08-17T04:35:10.514Z,90.83
2022-08-17T04:37:37.128Z,90.51
2022-08-17T04:40:23.066Z,89.93
2022-08-17T04:43:10.155Z,93.44
2022-08-17T04:45:55.013Z,90.95
2022-08-17T04:48:22.793Z,89.84
2022-08-17T04:50:54.340Z,91.27
2022-08-17T04:53:23.625Z,94.30
2022-08-17T04:55:52.406Z,92.70
2022-08-17T04:58:19.619Z,91.33
2022-08-17T05:00:46.299Z,90.72
2022-08-17T05:03:13.555Z,89.61
2022-08-17T05:05:43.480Z,89.58
2022-08-17T05:08:10.278Z,89.46
2022-08-17T05:10:45.049Z,88.26
2022-08-17T05:13:16.365Z,88.77
2022-08-17T05:15:47.771Z,89.34
2022-08-17T05:18:17.380Z,89.51
2022-08-17T05:20:44.606Z,89.83
2022-08-17T05:23:15.001Z,90.10
2022-08-17T05:25:47.424Z,91.38
2022-08-17T05:28:41.863Z,91.58
2022-08-17T05:31:12.803Z,88.88
2022-08-17T05:33:46.165Z,88.30
2022-08-17T05:36:43.247Z,87.46
2022-08-17T05:39:03.874Z,87.15
2022-08-17T05:41:33.471Z,86.96
2022-08-17T05:44:05.554Z,86.67
2022-08-17T05:46:48.022Z,88.46
2022-08-17T05:49:26.939Z,88.29
2022-08-17T05:52:37.879Z,87.94
2022-08-17T06:01:54.331Z,87.09
2022-08-17T06:04:44.812Z,86.49
2022-08-17T06:45:31.477Z,79.75
2022-08-17T06:48:15.387Z,78.21
2022-08-17T06:58:16.341Z,71.57
2022-08-17T07:04:30.570Z,69.48
2022-08-17T07:07:27.643Z,71.21
2022-08-17T07:09:57.639Z,67.30
2022-08-17T07:12:39.459Z,67.53
2022-08-17T07:15:38.254Z,67.22
2022-08-17T07:18:08.882Z,63.96
2022-08-17T07:21:17.639Z,60.24
2022-08-17T07:24:29.359Z,62.05
2022-08-17T07:27:09.432Z,59.93
2022-08-17T13:13:56.245Z,34.37
2022-08-17T13:14:43.169Z,38.58
2022-08-17T13:17:13.298Z,41.53
2022-08-17T13:19:52.186Z,37.59
2022-08-17T13:26:15.487Z,39.55
2022-08-17T13:28:51.406Z,38.54
2022-08-17T13:31:30.399Z,35.78
2022-08-17T13:35:39.165Z,39.77
2022-08-17T13:39:00.613Z,38.20
2022-08-17T13:45:36.768Z,37.57
2022-08-17T13:48:40.342Z,38.58
2022-08-17T13:52:10.564Z,39.32
2022-08-17T13:55:26.310Z,37.42
2022-08-17T13:58:07.115Z,36.82
2022-08-17T14:00:58.808Z,38.89
2022-08-17T14:03:27.806Z,37.29
2022-08-17T14:05:57.117Z,38.69
2022-08-17T14:08:24.000Z,36.59
2022-08-17T14:10:58.494Z,38.72
2022-08-17T14:13:25.102Z,39.40
2022-08-17T14:15:55.581Z,39.33
2022-08-17T14:36:51.221Z,39.04
2022-08-17T14:46:58.064Z,40.35
2022-08-17T14:49:28.313Z,38.10
2022-08-17T14:51:55.291Z,45.79
2022-08-17T14:54:53.773Z,40.11
2022-08-17T14:57:46.841Z,34.65
2022-08-17T15:00:17.332Z,38.78
2022-08-17T15:02:46.024Z,37.38
2022-08-17T15:05:18.471Z,38.37
2022-08-17T15:07:45.049Z,36.09
2022-08-17T15:10:13.603Z,36.76
2022-08-17T15:12:41.592Z,39.89
2022-08-17T15:15:16.596Z,38.83
2022-08-17T15:17:46.021Z,37.56
2022-08-17T15:20:16.405Z,37.12
2022-08-17T15:22:45.389Z,39.12
2022-08-17T15:25:14.873Z,36.82
2022-08-17T15:27:42.118Z,39.00
2022-08-17T15:30:18.902Z,38.59
2022-08-17T15:32:54.049Z,38.50
2022-08-17T15:35:39.755Z,38.77
2022-08-17T15:38:11.955Z,36.18
2022-08-17T15:40:53.551Z,38.06
2022-08-17T15:43:28.228Z,40.23
2022-08-17T15:46:00.238Z,38.78
2022-08-17T15:51:58.087Z,38.33
2022-08-17T15:54:34.512Z,41.69
2022-08-17T15:57:02.933Z,38.62
2022-08-17T15:59:31.094Z,40.23
2022-08-17T16:03:15.177Z,41.31
2022-08-17T16:05:00.035Z,38.91
2022-08-17T16:07:28.782Z,40.43
2022-08-17T16:09:55.431Z,39.78
2022-08-17T16:12:22.353Z,40.86
2022-08-17T16:14:52.600Z,40.33
2022-08-17T16:25:18.097Z,41.23
2022-08-17T16:27:45.967Z,41.51
2022-08-17T16:30:17.539Z,43.40
2022-08-17T16:32:45.431Z,41.13
2022-08-17T16:35:16.223Z,42.72
2022-08-17T16:37:45.382Z,46.45
2022-08-17T16:40:14.376Z,44.99
2022-08-17T16:42:41.196Z,43.59
2022-08-17T16:45:17.032Z,41.52
2022-08-17T16:47:44.016Z,42.18
2022-08-17T16:50:13.766Z,42.90
2022-08-17T16:52:40.509Z,42.61
2022-08-17T16:55:13.258Z,43.02
2022-08-17T16:57:47.356Z,43.99
2022-08-17T17:00:21.100Z,44.78
2022-08-17T17:02:53.823Z,44.17
2022-08-17T17:05:34.302Z,47.09
2022-08-17T17:08:35.002Z,48.08
2022-08-17T17:14:00.062Z,51.07
2022-08-17T17:16:37.304Z,51.49
2022-08-17T17:19:17.970Z,54.74
2022-08-17T17:22:16.586Z,55.14
2022-08-17T17:25:20.828Z,53.21
2022-08-17T17:28:29.139Z,51.61
2022-08-17T17:38:19.803Z,56.71
2022-08-17T17:41:10.757Z,57.32
2022-08-17T17:43:39.948Z,58.64
2022-08-17T17:46:52.598Z,58.64
2022-08-17T17:51:02.791Z,56.51
2022-08-17T20:32:08.143Z,64.62
2022-08-17T20:34:39.740Z,65.32
2022-08-17T20:37:27.056Z,65.39
2022-08-17T20:39:56.583Z,65.09
2022-08-17T20:42:27.189Z,62.47
2022-08-17T20:45:02.740Z,64.86
2022-08-17T20:48:00.757Z,63.23
2022-08-17T20:50:37.897Z,63.08
2022-08-17T20:53:28.156Z,63.83
2022-08-17T20:55:56.843Z,62.99
2022-08-17T20:58:45.394Z,63.80
2022-08-17T21:01:26.531Z,63.21
2022-08-17T21:03:54.569Z,64.88
2022-08-17T21:06:55.348Z,63.91
2022-08-17T21:09:46.845Z,64.91
2022-08-17T21:12:57.202Z,64.69
2022-08-17T21:15:44.410Z,64.30
2022-08-17T21:19:12.399Z,64.54
2022-08-17T21:22:06.471Z,64.56
2022-08-17T21:25:02.263Z,64.31
2022-08-17T21:27:47.077Z,64.59
2022-08-17T21:34:07.899Z,66.23
2022-08-17T21:36:48.246Z,66.80
2022-08-17T21:57:33.559Z,67.85
2022-08-17T22:00:50.222Z,69.76
2022-08-17T22:03:38.414Z,70.86
2022-08-17T22:06:55.806Z,69.34
2022-08-17T22:09:49.587Z,70.24
2022-08-17T22:12:28.863Z,70.99
2022-08-17T22:15:07.193Z,70.58
2022-08-17T22:17:40.483Z,70.89
2022-08-17T22:20:28.877Z,71.02
2022-08-17T22:23:28.727Z,70.50
2022-08-17T22:26:25.438Z,70.59
2022-08-17T22:28:58.385Z,71.16
2022-08-17T22:32:21.601Z,70.72
2022-08-17T22:35:26.678Z,71.67
2022-08-17T22:38:24.065Z,71.66
2022-08-17T22:41:26.258Z,71.00
2022-08-17T22:44:39.622Z,72.31
2022-08-17T22:47:51.608Z,72.68
2022-08-17T22:53:41.788Z,72.56
2022-08-17T22:56:36.321Z,72.02
2022-08-17T22:59:22.854Z,72.91
2022-08-17T23:02:27.541Z,71.70
2022-08-17T23:05:30.792Z,72.88
2022-08-17T23:11:20.446Z,72.43
2022-08-17T23:17:37.448Z,71.72
2022-08-17T23:20:49.624Z,71.58
2022-08-17T23:27:15.205Z,72.68
2022-08-17T23:30:08.653Z,72.44
2022-08-17T23:33:03.089Z,71.76
2022-08-17T23:36:00.142Z,72.20
2022-08-17T23:39:06.631Z,73.53
2022-08-17T23:42:31.097Z,72.70
2022-08-17T23:45:45.169Z,72.90
2022-08-17T23:48:44.443Z,72.89
2022-08-17T23:56:10.079Z,74.98
2022-08-17T23:58:46.382Z,74.95
